Time;durP1;ratioP1;P1;durP2;ratioP2;P2;SDS_P1;SDS_P2;PMS_P1;PMS_P2;Temp;Humidity;BMP_temperature;BMP_pressure;BME280_temperature;BME280_humidity;BME280_pressure;Samples;Min_cycle;Max_cycle;Signal;HPM_P1;HPM_P2
2022/01/23 00:00:46;;;;;;;3.58;1.60;;;;;;;-0.92;90.29;100983.88;1957715;71;21117;-59
2022/01/23 00:03:17;;;;;;;5.58;1.60;;;;;;;-0.87;90.27;100993.83;1947104;74;21189;-59
2022/01/23 00:05:48;;;;;;;3.87;1.15;;;;;;;-0.88;90.23;100993.41;1921658;72;21476;-63
2022/01/23 00:08:21;;;;;;;2.92;1.42;;;;;;;-0.87;90.17;100992.97;1920884;74;21051;-64
2022/01/23 00:10:55;;;;;;;2.52;1.32;;;;;;;-0.90;90.16;100987.78;1911990;74;21063;-64
2022/01/23 00:13:33;;;;;;;2.75;1.17;;;;;;;-0.91;90.17;100984.74;1921104;74;21108;-63
2022/01/23 00:18:41;;;;;;;2.15;1.12;;;;;;;-0.91;90.19;100989.48;1918682;74;21038;-62
2022/01/23 00:21:09;;;;;;;4.33;1.55;;;;;;;-0.91;90.30;100988.19;1918445;73;21041;-62
2022/01/23 00:31:41;;;;;;;4.55;2.00;;;;;;;-0.90;90.32;100992.52;1922158;74;21457;-60
2022/01/23 00:34:10;;;;;;;3.20;1.72;;;;;;;-0.92;90.30;100982.59;1920975;74;21140;-61
2022/01/23 00:36:39;;;;;;;2.15;1.00;;;;;;;-0.92;90.30;100982.59;1919292;74;21125;-62
2022/01/23 00:39:09;;;;;;;3.27;1.60;;;;;;;-0.92;90.29;100981.30;1922080;74;21460;-63
2022/01/23 00:41:38;;;;;;;4.90;1.47;;;;;;;-0.91;90.26;100975.27;1920105;73;21139;-61
2022/01/23 00:44:07;;;;;;;2.00;1.35;;;;;;;-0.90;90.31;100970.98;1920401;74;22055;-63
2022/01/23 00:46:38;;;;;;;2.55;1.40;;;;;;;-0.92;90.29;100964.50;1921335;74;21077;-62
2022/01/23 00:51:39;;;;;;;4.30;1.52;;;;;;;-0.93;90.34;100955.42;1917971;74;21033;-61
2022/01/23 00:54:10;;;;;;;2.67;1.25;;;;;;;-0.94;90.46;100957.16;1920124;74;21100;-64
2022/01/23 00:56:39;;;;;;;2.98;1.70;;;;;;;-0.95;90.42;100963.16;1921288;74;21145;-63
2022/01/23 00:59:08;;;;;;;4.85;2.08;;;;;;;-0.93;90.42;100961.45;1920280;73;21143;-62
2022/01/23 01:01:36;;;;;;;7.20;1.40;;;;;;;-0.95;90.42;100960.58;1919944;73;21102;-60
2022/01/23 01:04:06;;;;;;;2.02;1.22;;;;;;;-0.97;90.45;100966.16;1921887;73;21029;-63
2022/01/23 01:06:35;;;;;;;2.72;1.20;;;;;;;-0.96;90.45;100960.11;1919137;73;21141;-62
2022/01/23 01:09:06;;;;;;;6.22;1.72;;;;;;;-0.97;90.44;100954.52;1921022;74;21069;-60
2022/01/23 01:11:55;;;;;;;3.65;1.70;;;;;;;-0.97;90.47;100951.50;1920036;74;21117;-60
2022/01/23 01:14:25;;;;;;;4.20;1.70;;;;;;;-0.95;90.47;100945.06;1916183;74;21031;-60
2022/01/23 01:16:57;;;;;;;4.92;2.22;;;;;;;-0.94;90.52;100930.02;1924702;73;21070;-59
2022/01/23 01:30:29;;;;;;;3.10;1.70;;;;;;;-0.89;90.46;100913.23;1918763;74;21019;-62
2022/01/23 01:33:01;;;;;;;4.17;1.77;;;;;;;-0.88;90.43;100917.58;1915915;74;21063;-60
2022/01/23 01:35:25;;;;;;;3.22;2.02;;;;;;;-0.88;90.41;100912.41;1918582;75;21095;-62
2022/01/23 01:37:49;;;;;;;3.17;1.45;;;;;;;-0.88;90.34;100900.34;1921715;73;21612;-61
2022/01/23 01:40:18;;;;;;;5.25;2.08;;;;;;;-0.89;90.28;100896.00;1920711;75;21189;-60
2022/01/23 01:42:47;;;;;;;4.25;1.52;;;;;;;-0.92;90.30;100897.28;1920799;75;21463;-60
2022/01/23 01:45:26;;;;;;;5.05;2.33;;;;;;;-0.91;90.47;100893.83;1920716;73;21560;-60
2022/01/23 01:48:00;;;;;;;3.98;1.30;;;;;;;-0.91;90.45;100891.25;1917090;73;21521;-60
2022/01/23 01:50:31;;;;;;;8.88;2.33;;;;;;;-0.92;90.34;100888.23;1915622;75;21128;-60
2022/01/23 01:53:02;;;;;;;5.42;1.90;;;;;;;-0.92;90.31;100886.05;1915514;75;21624;-60
2022/01/23 01:55:39;;;;;;;5.30;2.42;;;;;;;-0.93;90.25;100886.48;1915667;75;21105;-60
2022/01/23 01:58:04;;;;;;;5.35;2.60;;;;;;;-0.95;90.25;100886.91;1915701;75;21501;-60
2022/01/23 02:00:44;;;;;;;2.77;1.32;;;;;;;-0.97;90.23;100883.44;1912687;75;21108;-61
2022/01/23 02:03:35;;;;;;;4.45;2.20;;;;;;;-0.98;90.19;100886.86;1915712;74;21149;-60
2022/01/23 02:08:30;;;;;;;3.90;1.87;;;;;;;-0.99;90.12;100881.27;1905859;75;21067;-60
2022/01/23 02:13:40;;;;;;;5.40;2.17;;;;;;;-1.01;90.22;100882.53;1865795;75;21036;-62
2022/01/23 02:16:38;;;;;;;4.83;2.25;;;;;;;-1.01;90.19;100880.39;1905693;75;21063;-60
2022/01/23 02:55:24;;;;;;;5.78;2.45;;;;;;;-0.96;90.21;100859.30;1904417;75;21088;-61
2022/01/23 03:00:20;;;;;;;5.47;2.72;;;;;;;-0.95;90.11;100861.05;1904436;75;21072;-60
2022/01/23 03:03:00;;;;;;;8.28;2.72;;;;;;;-0.95;90.13;100858.47;1904325;74;21096;-60
2022/01/23 03:05:36;;;;;;;5.50;2.62;;;;;;;-0.96;90.12;100855.42;1903637;75;21130;-63
2022/01/23 03:08:20;;;;;;;6.55;2.47;;;;;;;-0.98;90.07;100858.42;1920670;73;21084;-61
2022/01/23 03:10:41;;;;;;;3.35;2.37;;;;;;;-0.97;90.09;100855.00;1926515;73;21126;-60
2022/01/23 03:13:40;;;;;;;6.30;1.72;;;;;;;-0.97;90.11;100858.45;1924586;73;21072;-60
2022/01/23 03:26:57;;;;;;;3.00;1.85;;;;;;;-0.99;90.22;100868.34;1922130;75;21038;-61
2022/01/23 03:29:26;;;;;;;4.45;1.77;;;;;;;-0.98;90.21;100871.35;1921881;74;21107;-60
2022/01/23 03:32:01;;;;;;;3.70;1.27;;;;;;;-0.98;90.18;100877.41;1920889;74;21124;-60
2022/01/23 03:34:26;;;;;;;2.37;1.75;;;;;;;-0.98;90.16;100872.64;1921988;74;21071;-59
2022/01/23 03:36:56;;;;;;;3.55;2.02;;;;;;;-1.00;90.16;100861.42;1921886;75;21019;-60
2022/01/23 03:39:26;;;;;;;3.12;1.92;;;;;;;-1.00;90.21;100871.77;1922051;75;21129;-61
2022/01/23 03:41:55;;;;;;;2.95;1.50;;;;;;;-1.00;90.22;100869.18;1922068;75;21117;-60
2022/01/23 03:44:23;;;;;;;3.30;1.20;;;;;;;-1.00;90.24;100858.84;1922058;75;21126;-61
2022/01/23 03:47:20;;;;;;;2.15;1.17;;;;;;;-1.02;90.15;100857.53;1922008;75;21114;-61
2022/01/23 03:49:32;;;;;;;3.15;1.45;;;;;;;-1.04;90.15;100862.25;1917882;75;21200;-60
2022/01/23 03:52:13;;;;;;;1.45;1.10;;;;;;;-1.05;90.15;100857.92;1897681;75;21070;-61
2022/01/23 03:54:44;;;;;;;1.72;1.27;;;;;;;-1.06;90.14;100865.25;1922042;75;21154;-60
2022/01/23 03:57:13;;;;;;;2.17;1.40;;;;;;;-1.07;90.18;100866.09;1922181;75;21062;-60
2022/01/23 03:59:42;;;;;;;1.77;0.95;;;;;;;-1.09;90.22;100868.65;1921923;75;21546;-61
2022/01/23 04:02:12;;;;;;;2.00;1.15;;;;;;;-1.08;90.27;100873.41;1922088;75;21549;-63
2022/01/23 04:04:42;;;;;;;1.37;1.10;;;;;;;-1.08;90.31;100872.13;1922226;75;21503;-61
2022/01/23 04:07:23;;;;;;;3.75;1.30;;;;;;;-1.07;90.32;100875.13;1920448;74;21148;-60
2022/01/23 04:09:52;;;;;;;2.77;1.55;;;;;;;-1.07;90.31;100872.55;1915730;75;21469;-61
2022/01/23 04:12:41;;;;;;;2.27;1.57;;;;;;;-1.08;90.34;100868.25;1915771;75;21121;-62
2022/01/23 04:15:09;;;;;;;2.37;1.47;;;;;;;-1.09;90.37;100867.36;1915963;75;21078;-61
2022/01/23 04:18:18;;;;;;;5.17;1.87;;;;;;;-1.10;90.30;100863.49;1915872;75;21070;-62
2022/01/23 04:34:10;;;;;;;2.52;1.62;;;;;;;-1.13;90.27;100886.70;1922955;74;21112;-58
2022/01/23 05:04:18;;;;;;;3.02;1.80;;;;;;;-1.07;90.29;100913.89;1921168;74;21101;-61
2022/01/23 05:09:47;;;;;;;5.45;2.77;;;;;;;-1.00;90.33;100924.35;1923036;74;21084;-61
2022/01/23 05:12:17;;;;;;;5.10;2.25;;;;;;;-0.99;90.43;100909.70;1922883;74;21586;-61
2022/01/23 05:14:48;;;;;;;6.20;2.80;;;;;;;-0.98;90.37;100911.41;1922913;74;21025;-62
2022/01/23 05:17:18;;;;;;;5.08;2.58;;;;;;;-0.96;90.27;100921.34;1923158;73;21027;-61
2022/01/23 05:19:47;;;;;;;4.45;2.67;;;;;;;-0.97;90.21;100921.78;1922932;74;21492;-61
2022/01/23 05:22:36;;;;;;;5.53;2.15;;;;;;;-0.94;90.23;100930.41;1922924;74;21034;-60
2022/01/23 05:25:09;;;;;;;7.42;3.20;;;;;;;-0.93;90.30;100939.48;1921087;74;21028;-61
2022/01/23 05:27:32;;;;;;;5.85;2.37;;;;;;;-0.91;90.27;100941.66;1922544;73;21105;-61
2022/01/23 05:30:01;;;;;;;6.90;2.37;;;;;;;-0.89;90.27;100942.53;1920700;75;21134;-61
2022/01/23 05:32:41;;;;;;;6.17;2.80;;;;;;;-0.87;90.25;100943.41;1920687;75;21521;-60
2022/01/23 05:35:13;;;;;;;5.50;2.67;;;;;;;-0.83;90.30;100947.80;1920733;75;21084;-60
2022/01/23 05:37:43;;;;;;;4.40;2.55;;;;;;;-0.81;90.41;100951.27;1920534;75;21041;-61
2022/01/23 05:40:16;;;;;;;7.75;3.10;;;;;;;-0.81;90.37;100956.44;1920471;73;21157;-61
2022/01/23 05:42:46;;;;;;;6.63;2.80;;;;;;;-0.79;90.34;100952.14;1920986;75;21076;-60
2022/01/23 05:45:17;;;;;;;6.80;2.87;;;;;;;-0.78;90.29;100953.86;1920724;75;21530;-61
2022/01/23 05:48:04;;;;;;;8.58;3.22;;;;;;;-0.77;90.52;100963.80;1920635;75;21135;-61
2022/01/23 05:50:51;;;;;;;5.87;3.40;;;;;;;-0.79;90.82;100961.63;1920648;75;21068;-61
2022/01/23 05:53:33;;;;;;;8.25;3.22;;;;;;;-0.78;91.07;100966.78;1922253;73;21041;-61
2022/01/23 05:56:20;;;;;;;6.08;2.72;;;;;;;-0.76;91.30;100959.48;1920704;75;21126;-60
2022/01/23 05:58:50;;;;;;;7.20;3.30;;;;;;;-0.68;91.24;100968.18;1923028;73;21083;-61
2022/01/23 06:01:21;;;;;;;8.03;3.60;;;;;;;-0.63;91.16;100966.52;1920684;75;21057;-60
2022/01/23 06:03:51;;;;;;;7.58;2.83;;;;;;;-0.58;91.19;100966.14;1920724;75;21134;-61
2022/01/23 06:06:21;;;;;;;5.97;2.33;;;;;;;-0.55;91.05;100964.89;1922141;73;21044;-62
2022/01/23 06:08:50;;;;;;;5.90;2.50;;;;;;;-0.55;91.19;100953.66;1920825;73;21580;-61
2022/01/23 06:11:19;;;;;;;5.05;2.22;;;;;;;-0.51;91.40;100944.66;1920614;74;21182;-61
2022/01/23 06:13:48;;;;;;;6.25;2.55;;;;;;;-0.47;91.51;100947.72;1920617;75;21134;-62
2022/01/23 06:16:17;;;;;;;6.70;2.60;;;;;;;-0.44;91.58;100956.81;1920687;74;21491;-58
2022/01/23 06:18:47;;;;;;;4.65;2.52;;;;;;;-0.43;91.70;100953.34;1926163;73;21530;-58
2022/01/23 06:21:30;;;;;;;5.62;2.40;;;;;;;-0.37;91.76;100956.86;1926027;74;21145;-59
2022/01/23 06:27:10;;;;;;;4.17;2.12;;;;;;;-0.31;91.79;100969.88;1915806;75;21124;-60
2022/01/23 06:29:43;;;;;;;5.47;2.35;;;;;;;-0.33;91.68;100958.61;1915788;75;21497;-60
2022/01/23 06:32:13;;;;;;;6.90;2.42;;;;;;;-0.31;91.82;100956.94;1915532;74;21035;-61
2022/01/23 06:34:42;;;;;;;3.70;2.17;;;;;;;-0.27;91.71;100956.95;1915585;75;21039;-59
2022/01/23 06:37:30;;;;;;;7.70;2.98;;;;;;;-0.25;91.74;100955.25;1915544;75;21046;-59
2022/01/23 06:39:59;;;;;;;5.90;3.05;;;;;;;-0.24;91.61;100950.93;1829417;78;21070;-59
2022/01/23 06:42:46;;;;;;;7.28;2.85;;;;;;;-0.26;91.62;100950.94;1827398;78;21080;-61
2022/01/23 06:45:19;;;;;;;7.65;3.15;;;;;;;-0.26;91.55;100956.12;1823370;78;21116;-58
2022/01/23 06:47:48;;;;;;;6.60;3.60;;;;;;;-0.27;91.59;100959.55;1827564;78;21139;-61
2022/01/23 06:50:17;;;;;;;7.50;2.98;;;;;;;-0.25;91.80;100950.51;1827513;78;21059;-61
2022/01/23 06:52:46;;;;;;;5.25;2.40;;;;;;;-0.19;92.00;100946.66;1827325;76;21112;-62
2022/01/23 06:55:17;;;;;;;4.87;2.72;;;;;;;-0.14;91.95;100946.72;1827707;78;21142;-61
2022/01/23 06:57:46;;;;;;;6.72;2.92;;;;;;;-0.14;92.06;100950.16;1827110;78;21194;-61
2022/01/23 07:00:17;;;;;;;7.70;2.80;;;;;;;-0.10;92.09;100954.94;1827406;78;21170;-59
2022/01/23 07:03:00;;;;;;;7.87;3.55;;;;;;;-0.06;92.03;100953.67;1809999;78;21099;-59
2022/01/23 07:05:47;;;;;;;7.97;3.00;;;;;;;0.05;92.03;100945.13;1827339;78;21572;-58
2022/01/23 07:08:18;;;;;;;2.05;1.75;;;;;;;0.13;92.04;100932.69;1827110;78;21134;-58
2022/01/23 07:10:48;;;;;;;5.90;3.17;;;;;;;0.13;91.76;100928.80;1826800;78;21582;-59
2022/01/23 07:13:28;;;;;;;8.80;3.50;;;;;;;0.13;91.56;100921.03;1784928;80;21100;-58
2022/01/23 07:16:07;;;;;;;6.72;2.92;;;;;;;0.15;91.44;100919.32;1826048;78;21114;-60
2022/01/23 07:18:38;;;;;;;3.10;1.60;;;;;;;0.21;91.66;100913.75;1826337;78;21087;-61
2022/01/23 07:21:08;;;;;;;5.35;3.00;;;;;;;0.26;91.86;100912.03;1826538;78;21116;-62
2022/01/23 07:23:39;;;;;;;6.35;3.15;;;;;;;0.26;92.10;100911.63;1826807;78;21569;-63
2022/01/23 07:26:08;;;;;;;5.95;2.90;;;;;;;0.28;92.07;100911.64;1796551;79;21614;-63
2022/01/23 07:28:41;;;;;;;8.53;3.12;;;;;;;0.35;92.25;100906.50;1796366;80;21167;-63
2022/01/23 07:31:10;;;;;;;7.95;3.22;;;;;;;0.43;92.27;100906.53;1826486;78;21528;-62
2022/01/23 07:33:39;;;;;;;7.40;2.92;;;;;;;0.43;92.15;100912.15;1796765;80;21062;-62
2022/01/23 07:36:08;;;;;;;4.80;1.80;;;;;;;0.41;92.06;100920.31;1796681;80;21156;-60
2022/01/23 07:38:37;;;;;;;6.20;3.08;;;;;;;0.43;91.94;100934.17;1795473;80;21100;-59
2022/01/23 07:41:13;;;;;;;5.47;2.40;;;;;;;0.32;91.75;100925.89;1819991;79;21580;-59
2022/01/23 07:43:46;;;;;;;5.15;2.10;;;;;;;0.28;91.55;100933.22;1817955;79;21540;-59
2022/01/23 07:46:25;;;;;;;9.08;2.72;;;;;;;0.29;91.54;100938.81;1759624;80;21164;-59
2022/01/23 07:49:02;;;;;;;5.00;2.72;;;;;;;0.24;91.58;100943.13;1730599;80;21090;-60
2022/01/23 07:51:45;;;;;;;5.53;2.50;;;;;;;0.16;91.61;100948.23;1712018;80;21493;-58
2022/01/23 07:54:16;;;;;;;4.72;2.65;;;;;;;0.15;91.55;100949.53;1786861;80;21196;-59
2022/01/23 07:56:49;;;;;;;;;;;;;;;0.17;91.69;100953.00;1788336;80;21102;-59
2022/01/23 07:59:36;;;;;;;6.62;2.80;;;;;;;0.25;91.47;100951.31;1788705;80;20183;-63
2022/01/23 08:02:12;;;;;;;8.00;3.30;;;;;;;0.23;91.62;100962.53;1786771;80;21086;-59
2022/01/23 08:04:43;;;;;;;5.28;2.92;;;;;;;0.25;91.72;100967.29;1788803;80;21509;-62
2022/01/23 08:07:22;;;;;;;7.37;3.27;;;;;;;0.27;91.67;100964.28;1794506;78;21050;-61
2022/01/23 08:09:56;;;;;;;5.50;2.60;;;;;;;0.30;91.61;100960.42;1764328;78;21129;-59
2022/01/23 08:12:26;;;;;;;9.20;3.50;;;;;;;0.27;91.49;100957.36;1768514;80;21054;-62
2022/01/23 08:14:55;;;;;;;6.70;3.08;;;;;;;0.28;91.42;100956.53;1792293;80;21149;-62
2022/01/23 08:17:25;;;;;;;7.92;3.90;;;;;;;0.33;91.50;100960.02;1763879;81;21118;-62
2022/01/23 08:19:55;;;;;;;6.53;3.52;;;;;;;0.28;91.54;100966.88;1763991;81;21086;-62
2022/01/23 08:22:26;;;;;;;5.78;2.98;;;;;;;0.36;91.73;100960.02;1763663;81;21133;-62
2022/01/23 08:24:56;;;;;;;8.28;3.60;;;;;;;0.46;91.78;100951.89;1801341;80;21207;-62
2022/01/23 08:27:26;;;;;;;8.30;3.35;;;;;;;0.55;91.68;100960.13;1802442;80;21106;-62
2022/01/23 08:29:56;;;;;;;8.33;2.95;;;;;;;0.56;91.75;100957.98;1802360;79;21207;-62
2022/01/23 08:32:25;;;;;;;7.12;2.85;;;;;;;0.60;91.64;100958.44;1802224;79;21043;-61
2022/01/23 08:34:54;;;;;;;7.92;3.60;;;;;;;0.54;91.67;100945.02;1802340;80;21176;-66
2022/01/23 08:37:23;;;;;;;6.58;2.42;;;;;;;0.49;91.78;100941.97;1802461;79;21200;-65
2022/01/23 08:39:51;;;;;;;6.65;3.40;;;;;;;0.56;91.72;100945.03;1811984;78;21218;-65
2022/01/23 08:42:21;;;;;;;9.88;4.25;;;;;;;0.56;91.75;100942.44;1824653;77;21159;-65
2022/01/23 08:44:51;;;;;;;6.55;3.33;;;;;;;0.62;91.83;100950.23;1824987;78;21102;-66
2022/01/23 08:47:21;;;;;;;7.08;3.45;;;;;;;0.68;91.69;100948.99;1824327;79;21074;-64
2022/01/23 08:49:51;;;;;;;6.58;3.40;;;;;;;0.70;91.51;100948.56;1795312;80;21038;-63
2022/01/23 08:52:22;;;;;;;6.35;3.17;;;;;;;0.68;91.62;100937.33;1805272;79;21051;-65
2022/01/23 08:54:56;;;;;;;7.47;3.42;;;;;;;0.65;91.36;100932.12;1826561;77;21120;-66
2022/01/23 08:57:22;;;;;;;7.22;3.47;;;;;;;0.64;91.21;100935.99;1823316;77;21082;-64
2022/01/23 08:59:52;;;;;;;5.97;2.95;;;;;;;0.66;91.41;100934.27;1795217;80;21098;-61
2022/01/23 09:02:25;;;;;;;6.95;3.30;;;;;;;0.66;91.49;100932.54;1795354;80;21509;-61
2022/01/23 09:04:52;;;;;;;8.13;3.40;;;;;;;0.62;91.24;100924.31;1794897;80;21054;-61
2022/01/23 09:07:20;;;;;;;10.78;4.45;;;;;;;0.64;91.25;100927.78;1795333;80;21089;-61
2022/01/23 09:09:49;;;;;;;10.58;4.15;;;;;;;0.65;91.39;100928.23;1800780;79;21073;-61
2022/01/23 09:13:30;;;;;;;4.80;2.87;;;;;;;0.67;91.12;100934.28;1825026;78;21082;-62
2022/01/23 09:14:57;;;;;;;8.48;3.87;;;;;;;0.69;90.97;100929.97;1815545;77;21150;-61
2022/01/23 09:17:26;;;;;;;6.78;3.80;;;;;;;0.74;90.87;100932.16;1802213;79;21215;-61
2022/01/23 09:19:55;;;;;;;9.33;4.53;;;;;;;0.81;90.96;100933.47;1825110;79;21536;-61
2022/01/23 09:22:29;;;;;;;8.28;4.00;;;;;;;0.92;91.26;100934.38;1825171;79;21054;-61
2022/01/23 09:24:58;;;;;;;9.03;4.10;;;;;;;0.92;91.20;100931.38;1825278;77;21141;-61
2022/01/23 09:27:27;;;;;;;8.13;3.65;;;;;;;0.91;91.13;100935.25;1825147;79;21050;-62
2022/01/23 09:30:05;;;;;;;7.05;3.70;;;;;;;0.88;91.21;100932.20;1825330;79;21058;-67
2022/01/23 09:32:28;;;;;;;6.85;3.83;;;;;;;0.90;91.57;100936.95;1826472;77;21092;-63
2022/01/23 09:34:57;;;;;;;6.95;4.10;;;;;;;0.99;91.71;100924.91;1825113;77;21149;-61
2022/01/23 09:37:26;;;;;;;9.05;4.05;;;;;;;1.01;91.72;100929.22;1825810;77;21089;-63
2022/01/23 09:39:55;;;;;;;9.75;4.12;;;;;;;0.94;91.95;100928.36;1827386;77;21146;-63
2022/01/23 09:42:30;;;;;;;7.45;3.65;;;;;;;1.06;92.19;100926.22;1839630;78;21159;-64
2022/01/23 09:45:01;;;;;;;10.28;3.58;;;;;;;1.15;92.09;100934.03;1838831;78;21534;-63
2022/01/23 09:47:30;;;;;;;6.47;4.20;;;;;;;1.19;92.03;100936.64;1798170;80;21119;-64
2022/01/23 09:50:03;;;;;;;8.28;3.75;;;;;;;1.18;91.91;100937.48;1800294;79;21156;-63
2022/01/23 09:52:33;;;;;;;9.68;4.70;;;;;;;1.18;91.75;100936.19;1800382;78;21201;-64
2022/01/23 09:55:10;;;;;;;11.73;5.62;;;;;;;1.19;91.67;100934.91;1800394;79;21094;-63
2022/01/23 09:57:41;;;;;;;9.85;3.85;;;;;;;1.28;91.82;100934.06;1800342;79;21102;-63
2022/01/23 10:00:16;;;;;;;7.25;3.85;;;;;;;1.40;91.91;100922.39;1800251;79;21058;-61
2022/01/23 10:02:44;;;;;;;;;;;;;;;1.46;91.75;100925.45;1803005;80;21176;-62
2022/01/23 10:05:13;;;;;;;7.85;4.50;;;;;;;1.53;91.31;100929.35;1800354;80;20167;-62
2022/01/23 10:07:43;;;;;;;8.90;3.85;;;;;;;1.61;91.69;100922.02;1800327;80;21184;-61
2022/01/23 10:10:21;;;;;;;7.28;3.25;;;;;;;1.58;91.65;100919.41;1800459;79;21168;-62
2022/01/23 10:12:54;;;;;;;8.40;3.65;;;;;;;1.68;91.87;100922.45;1800330;78;21042;-62
2022/01/23 10:15:26;;;;;;;6.28;3.33;;;;;;;1.68;91.72;100912.92;1800425;80;21102;-62
2022/01/23 10:17:55;;;;;;;8.70;3.90;;;;;;;1.73;91.57;100909.91;1800323;80;21098;-62
2022/01/23 10:20:24;;;;;;;8.83;4.45;;;;;;;1.63;91.37;100906.00;1835346;77;21550;-62
2022/01/23 10:22:55;;;;;;;7.85;3.67;;;;;;;1.56;91.13;100899.93;1861042;77;21035;-63
2022/01/23 10:25:35;;;;;;;10.78;4.53;;;;;;;1.53;91.47;100899.51;1860938;77;21054;-62
2022/01/23 10:28:09;;;;;;;9.70;4.72;;;;;;;1.46;91.32;100895.17;1860994;77;21047;-63
2022/01/23 10:30:44;;;;;;;;;;;;;;;1.45;91.58;100889.54;1863835;77;21120;-64
2022/01/23 10:33:24;;;;;;;9.68;4.30;;;;;;;1.44;91.24;100884.34;1858604;77;20149;-62
2022/01/23 10:36:12;;;;;;;10.95;5.62;;;;;;;1.49;91.69;100880.88;1860534;77;21081;-65
2022/01/23 10:39:04;;;;;;;6.97;3.87;;;;;;;1.59;91.83;100885.67;1861006;77;21078;-67
2022/01/23 10:50:00;;;;;;;10.03;4.87;;;;;;;1.90;91.80;100879.14;1858523;77;21058;-65
2022/01/23 10:52:38;;;;;;;7.00;3.67;;;;;;;1.99;91.63;100883.47;1825955;78;21145;-64
2022/01/23 10:55:15;;;;;;;7.00;4.00;;;;;;;1.99;91.79;100870.48;1825945;77;21176;-64
2022/01/23 10:57:47;;;;;;;7.95;4.05;;;;;;;1.96;91.29;100876.55;1825944;78;21074;-63
2022/01/23 11:00:36;;;;;;;7.08;4.50;;;;;;;2.00;91.10;100869.62;1858125;77;21047;-63
2022/01/23 11:03:24;;;;;;;8.38;4.90;;;;;;;2.11;91.18;100863.53;1858258;77;21039;-62
2022/01/23 11:05:54;;;;;;;9.35;4.40;;;;;;;2.20;91.25;100859.20;1858327;77;21573;-61
2022/01/23 11:08:31;;;;;;;8.85;5.12;;;;;;;2.23;91.21;100859.17;1858472;77;21547;-62
2022/01/23 11:11:07;;;;;;;6.90;4.33;;;;;;;2.15;91.05;100855.30;1858331;76;21086;-61
2022/01/23 11:19:30;;;;;;;9.73;4.90;;;;;;;2.01;90.17;100845.36;1858275;77;21090;-60
2022/01/23 11:22:01;;;;;;;10.18;4.83;;;;;;;1.91;90.05;100844.09;1858495;77;21508;-61
2022/01/23 11:24:37;;;;;;;7.03;3.62;;;;;;;1.79;89.94;100842.83;1858273;77;21163;-63
2022/01/23 11:27:08;;;;;;;13.08;6.15;;;;;;;1.71;89.67;100843.25;1858382;77;21082;-62
2022/01/23 11:29:36;;;;;;;6.58;3.37;;;;;;;1.60;89.29;100849.75;1858286;77;21102;-62
2022/01/23 11:32:07;;;;;;;11.85;5.62;;;;;;;1.49;89.23;100857.53;1858410;76;21075;-62
2022/01/23 11:34:36;;;;;;;9.85;5.65;;;;;;;1.47;89.38;100864.45;1858409;77;21039;-62
2022/01/23 11:37:05;;;;;;;7.35;4.25;;;;;;;1.50;89.78;100864.46;1858423;77;21162;-63
2022/01/23 11:51:04;;;;;;;9.83;4.70;;;;;;;1.53;90.67;100877.45;1858328;77;21023;-64
2022/01/23 11:53:50;;;;;;;10.25;5.42;;;;;;;1.48;90.52;100873.98;1858550;76;21142;-62
2022/01/23 11:56:36;;;;;;;12.18;5.25;;;;;;;1.47;90.59;100876.12;1825905;78;21071;-60
2022/01/23 11:59:28;;;;;;;10.45;4.60;;;;;;;1.48;91.03;100884.36;1865647;76;21094;-64
2022/01/23 12:02:16;;;;;;;13.48;5.50;;;;;;;1.44;90.78;100889.53;1841940;78;21864;-65
2022/01/23 12:04:46;;;;;;;9.50;4.87;;;;;;;1.43;90.82;100886.08;1843009;78;21090;-63
2022/01/23 12:07:20;;;;;;;9.13;5.10;;;;;;;1.46;90.66;100895.17;1837651;78;21470;-64
2022/01/23 12:10:08;;;;;;;12.00;5.85;;;;;;;1.48;90.57;100895.19;1842862;78;21531;-64
2022/01/23 12:12:50;;;;;;;12.90;5.60;;;;;;;1.45;90.61;100886.94;1833139;78;21137;-64
2022/01/23 12:18:25;;;;;;;9.98;5.17;;;;;;;1.45;90.61;100899.92;1826166;78;21114;-62
2022/01/23 12:20:54;;;;;;;8.28;5.22;;;;;;;1.32;90.67;100905.96;1858512;76;21486;-64
2022/01/23 12:23:23;;;;;;;10.10;4.78;;;;;;;1.25;90.83;100914.59;1858381;77;21521;-65
2022/01/23 12:25:55;;;;;;;9.03;4.97;;;;;;;1.18;91.13;100916.73;1858299;77;21473;-60
2022/01/23 12:28:28;;;;;;;12.43;4.72;;;;;;;1.17;90.94;100915.02;1858479;76;21038;-60
2022/01/23 12:31:03;;;;;;;10.50;5.30;;;;;;;1.13;90.69;100911.11;1789223;78;21572;-68
2022/01/23 12:33:52;;;;;;;8.23;3.60;;;;;;;1.12;90.77;100909.81;1767309;79;21531;-71
2022/01/23 12:36:31;;;;;;;10.28;5.45;;;;;;;1.12;90.52;100914.55;1813622;78;21034;-70
2022/01/23 12:39:12;;;;;;;12.23;5.00;;;;;;;1.05;90.08;100924.50;1827574;78;21134;-58
2022/01/23 12:41:43;;;;;;;11.83;5.65;;;;;;;0.99;90.46;100940.46;1827126;77;21530;-59
2022/01/23 12:44:28;;;;;;;10.28;5.35;;;;;;;0.92;90.48;100942.16;1825265;78;21541;-60
2022/01/23 12:47:02;;;;;;;13.15;6.25;;;;;;;0.86;90.17;100944.30;1827333;77;21495;-60
2022/01/23 12:49:35;;;;;;;14.47;7.08;;;;;;;0.74;90.22;100941.23;1801204;78;21052;-60
2022/01/23 12:52:13;;;;;;;13.08;7.08;;;;;;;0.72;90.19;100944.25;1767362;81;21108;-60
2022/01/23 12:54:55;;;;;;;13.32;6.17;;;;;;;0.76;90.18;100936.92;1797877;80;21036;-60
2022/01/23 12:57:32;;;;;;;10.03;5.10;;;;;;;0.81;90.39;100941.25;1797706;78;21138;-60
2022/01/23 13:00:01;;;;;;;11.63;5.80;;;;;;;0.86;90.54;100947.33;1767265;81;21124;-60
2022/01/23 13:02:37;;;;;;;8.98;4.17;;;;;;;0.90;90.80;100951.22;1797810;80;21064;-61
2022/01/23 13:05:01;;;;;;;9.28;4.80;;;;;;;0.92;90.53;100953.82;1766313;81;21093;-60
2022/01/23 13:07:40;;;;;;;10.50;5.97;;;;;;;0.90;89.95;100960.73;1797766;80;21504;-60
2022/01/23 13:13:17;;;;;;;19.52;7.85;;;;;;;0.89;89.42;100970.68;1797843;80;21385;-60
2022/01/23 13:32:11;;;;;;;18.32;7.87;;;;;;;0.56;88.49;100951.07;1797827;80;21103;-60
2022/01/23 13:34:40;;;;;;;11.70;6.25;;;;;;;0.52;88.77;100952.36;1797845;80;21083;-60
2022/01/23 13:37:12;;;;;;;14.73;6.45;;;;;;;0.54;88.91;100949.34;1797691;78;21142;-60
2022/01/23 13:39:52;;;;;;;13.13;6.30;;;;;;;0.49;88.91;100943.27;1806925;78;21572;-62
2022/01/23 13:49:46;;;;;;;17.95;8.33;;;;;;;0.33;89.41;100933.22;1855420;77;21149;-62
2022/01/23 13:59:55;;;;;;;15.90;7.62;;;;;;;0.20;89.59;100941.34;1828297;77;21085;-63
2022/01/23 14:02:42;;;;;;;20.30;9.68;;;;;;;0.17;89.88;100946.52;1827965;78;21090;-64
2022/01/23 14:05:14;;;;;;;13.43;6.97;;;;;;;0.19;89.72;100943.52;1828353;78;21464;-59
2022/01/23 14:07:48;;;;;;;10.53;5.72;;;;;;;0.18;89.56;100942.66;1828306;78;21497;-59
2022/01/23 14:10:23;;;;;;;11.20;5.70;;;;;;;0.15;89.50;100937.88;1828138;78;21575;-59
2022/01/23 14:12:54;;;;;;;12.33;6.62;;;;;;;0.11;89.58;100939.98;1828228;78;21136;-59
2022/01/23 14:15:31;;;;;;;13.95;6.30;;;;;;;0.13;89.44;100946.04;1828365;78;21067;-60
2022/01/23 14:18:08;;;;;;;16.15;7.05;;;;;;;0.14;89.33;100953.83;1828385;78;21152;-60
2022/01/23 14:20:43;;;;;;;17.45;6.47;;;;;;;0.09;89.24;100950.77;1828291;78;21395;-60
2022/01/23 14:23:14;;;;;;;12.98;6.25;;;;;;;0.05;89.23;100947.72;1818650;77;21117;-60
2022/01/23 14:25:51;;;;;;;13.15;5.87;;;;;;;-0.01;89.28;100958.46;1790801;80;21168;-59
2022/01/23 14:28:28;;;;;;;15.98;6.25;;;;;;;0.02;89.24;100952.86;1791029;80;21076;-59
2022/01/23 14:31:00;;;;;;;10.58;5.78;;;;;;;-0.01;89.18;100951.99;1819392;79;21505;-66
2022/01/23 14:33:35;;;;;;;14.20;6.85;;;;;;;-0.07;89.37;100956.27;1795539;79;21487;-66
2022/01/23 14:36:22;;;;;;;12.85;6.75;;;;;;;-0.12;89.54;100953.63;1824747;78;21490;-67
2022/01/23 14:38:59;;;;;;;13.88;7.20;;;;;;;-0.15;89.82;100963.95;1824820;79;21138;-65
2022/01/23 14:41:31;;;;;;;14.95;7.75;;;;;;;-0.18;89.97;100967.83;1824728;79;21103;-60
2022/01/23 14:44:00;;;;;;;12.20;6.53;;;;;;;-0.24;90.20;100958.69;1838258;77;21200;-61
2022/01/23 14:46:29;;;;;;;12.00;6.40;;;;;;;-0.25;90.33;100958.27;1851498;77;21584;-60
2022/01/23 14:49:01;;;;;;;13.40;6.37;;;;;;;-0.24;90.31;100971.63;1851545;77;21135;-60
2022/01/23 14:51:34;;;;;;;10.90;5.42;;;;;;;-0.23;90.20;100970.36;1851594;77;21048;-60
2022/01/23 14:54:02;;;;;;;9.90;5.30;;;;;;;-0.23;90.25;100981.14;1850910;77;21079;-61
2022/01/23 14:56:33;;;;;;;9.75;5.15;;;;;;;-0.27;90.30;100976.80;1851393;77;21048;-60
2022/01/23 14:59:02;;;;;;;9.80;5.50;;;;;;;-0.25;90.05;100977.68;1851409;77;21150;-60
2022/01/23 15:01:32;;;;;;;9.50;5.03;;;;;;;-0.22;90.00;100967.37;1851447;77;21146;-60
2022/01/23 15:04:05;;;;;;;11.10;5.05;;;;;;;-0.20;89.90;100956.59;1851425;77;21076;-60
2022/01/23 15:06:34;;;;;;;9.95;4.87;;;;;;;-0.21;89.92;100957.44;1851498;77;21056;-60